Time;durP1;ratioP1;P1;durP2;ratioP2;P2;SDS_P1;SDS_P2;PMS_P1;PMS_P2;Temp;Humidity;BMP_temperature;BMP_pressure;BME280_temperature;BME280_humidity;BME280_pressure;Samples;Min_cycle;Max_cycle;Signal;HPM_P1;HPM_P2
2022/07/21 00:00:30;;;;;;;;;;;;;;;;;;5057520;28;19931;-61
2022/07/21 00:02:55;;;;;;;;;;;;;;;;;;5053926;28;20545;-60
2022/07/21 00:05:20;;;;;;;;;;;;;;;;;;5055979;28;20475;-59
2022/07/21 00:07:45;;;;;;;;;;;;;;;;;;5059251;28;19951;-60
2022/07/21 00:10:11;;;;;;;;;;;;;;;;;;5057677;28;19916;-61
2022/07/21 00:12:36;;;;;;;;;;;;;;;;;;5054247;28;19916;-58
2022/07/21 00:15:01;;;;;;;;;;;;;;;;;;5062923;28;19916;-61
2022/07/21 00:17:26;;;;;;;;;;;;;;;;;;5055820;28;20320;-61
2022/07/21 00:19:51;;;;;;;;;;;;;;;;;;5058261;28;19924;-60
2022/07/21 00:22:17;;;;;;;;;;;;;;;;;;5059381;28;19956;-60
2022/07/21 00:24:42;;;;;;;;;;;;;;;;;;5058726;28;19999;-59
2022/07/21 00:27:07;;;;;;;;;;;;;;;;;;5046171;28;19927;-60
2022/07/21 00:29:32;;;;;;;;;;;;;;;;;;5042641;28;19920;-58
2022/07/21 00:31:59;;;;;;;;;;;;;;;;;;5060857;28;19917;-60
2022/07/21 00:34:25;;;;;;;;;;;;;;;;;;5057169;28;19959;-59
2022/07/21 00:36:50;;;;;;;;;;;;;;;;;;5054588;28;20019;-59
2022/07/21 00:39:15;;;;;;;;;;;;;;;;;;5062073;28;19924;-60
2022/07/21 00:41:40;;;;;;;;;;;;;;;;;;5036330;28;19963;-59
2022/07/21 00:44:06;;;;;;;;;;;;;;;;;;5058273;28;19923;-61
2022/07/21 00:46:31;;;;;;;;;;;;;;;;;;5060665;28;19916;-60
2022/07/21 00:48:56;;;;;;;;;;;;;;;;;;5057020;28;21317;-60
2022/07/21 00:51:21;;;;;;;;;;;;;;;;;;5062146;28;19924;-59
2022/07/21 00:53:46;;;;;;;;;;;;;;;;;;5055809;28;19916;-60
2022/07/21 00:56:12;;;;;;;;;;;;;;;;;;5055623;28;20007;-61
2022/07/21 00:58:37;;;;;;;;;;;;;;;;;;5060958;28;20036;-60
2022/07/21 01:01:03;;;;;;;;;;;;;;;;;;5056049;28;19921;-59
2022/07/21 01:03:28;;;;;;;;;;;;;;;;;;5063277;28;20643;-60
2022/07/21 01:05:54;;;;;;;;;;;;;;;;;;5057749;28;19973;-60
2022/07/21 01:08:19;;;;;;;;;;;;;;;;;;5056556;28;19931;-61
2022/07/21 01:10:44;;;;;;;;;;;;;;;;;;5062205;28;19948;-61
2022/07/21 01:13:09;;;;;;;;;;;;;;;;;;5051527;28;19923;-60
2022/07/21 01:15:35;;;;;;;;;;;;;;;;;;5063590;28;19953;-59
2022/07/21 01:18:00;;;;;;;;;;;;;;;;;;5053150;28;19982;-60
2022/07/21 01:20:25;;;;;;;;;;;;;;;;;;5035875;28;19939;-60
2022/07/21 01:22:50;;;;;;;;;;;;;;;;;;5053123;28;19921;-60
2022/07/21 01:25:15;;;;;;;;;;;;;;;;;;5052995;28;19916;-60
2022/07/21 01:27:41;;;;;;;;;;;;;;;;;;5053856;28;19917;-60
2022/07/21 01:30:09;;;;;;;;;;;;;;;;;;5050420;28;20344;-60
2022/07/21 01:32:34;;;;;;;;;;;;;;;;;;5049194;28;19927;-60
2022/07/21 01:34:59;;;;;;;;;;;;;;;;;;5055060;28;20110;-60
2022/07/21 01:37:25;;;;;;;;;;;;;;;;;;5053342;28;19939;-60
2022/07/21 01:42:34;;;;;;;;;;;;;;;;;;5054469;28;19928;-60
2022/07/21 01:44:59;;;;;;;;;;;;;;;;;;5058167;28;20360;-61
2022/07/21 01:47:24;;;;;;;;;;;;;;;;;;5058178;28;19923;-61
2022/07/21 01:49:49;;;;;;;;;;;;;;;;;;5049712;28;19969;-60
2022/07/21 01:52:14;;;;;;;;;;;;;;;;;;5054838;28;20345;-60
2022/07/21 01:54:40;;;;;;;;;;;;;;;;;;5051476;28;19923;-59
2022/07/21 01:57:05;;;;;;;;;;;;;;;;;;5054542;28;19920;-60
2022/07/21 01:59:30;;;;;;;;;;;;;;;;;;5057309;28;19924;-59
2022/07/21 02:01:55;;;;;;;;;;;;;;;;;;5049111;28;20013;-60
2022/07/21 02:04:20;;;;;;;;;;;;;;;;;;5059173;28;19917;-60
2022/07/21 02:06:46;;;;;;;;;;;;;;;;;;5048275;28;19924;-60
2022/07/21 02:09:13;;;;;;;;;;;;;;;;;;5051549;28;20009;-59
2022/07/21 02:11:38;;;;;;;;;;;;;;;;;;5059605;28;19912;-60
2022/07/21 02:14:04;;;;;;;;;;;;;;;;;;5048526;28;19943;-60
2022/07/21 02:16:29;;;;;;;;;;;;;;;;;;5057465;28;19916;-59
2022/07/21 02:18:54;;;;;;;;;;;;;;;;;;5048089;28;20448;-60
2022/07/21 02:21:19;;;;;;;;;;;;;;;;;;5052332;28;20561;-60
2022/07/21 02:23:44;;;;;;;;;;;;;;;;;;5057728;28;19924;-60
2022/07/21 02:26:10;;;;;;;;;;;;;;;;;;5053130;28;19920;-59
2022/07/21 02:28:36;;;;;;;;;;;;;;;;;;5057872;28;20331;-60
2022/07/21 02:31:01;;;;;;;;;;;;;;;;;;5047724;28;19920;-59
2022/07/21 02:33:26;;;;;;;;;;;;;;;;;;5051202;28;20380;-59
2022/07/21 02:35:51;;;;;;;;;;;;;;;;;;5056744;28;19923;-60
2022/07/21 02:38:17;;;;;;;;;;;;;;;;;;5051066;28;19927;-59
2022/07/21 02:40:42;;;;;;;;;;;;;;;;;;5056307;28;19920;-61
2022/07/21 02:43:07;;;;;;;;;;;;;;;;;;5048260;28;19917;-59
2022/07/21 02:45:32;;;;;;;;;;;;;;;;;;5053328;28;19985;-59
2022/07/21 02:47:58;;;;;;;;;;;;;;;;;;5054393;28;19928;-60
2022/07/21 02:50:23;;;;;;;;;;;;;;;;;;5053020;28;19943;-59
2022/07/21 02:52:48;;;;;;;;;;;;;;;;;;5036685;28;20033;-60
2022/07/21 02:55:13;;;;;;;;;;;;;;;;;;5052923;28;20412;-59
2022/07/21 02:57:38;;;;;;;;;;;;;;;;;;5050405;28;19951;-60
2022/07/21 03:00:04;;;;;;;;;;;;;;;;;;5058255;28;19934;-60
2022/07/21 03:02:29;;;;;;;;;;;;;;;;;;5052418;28;19912;-61
2022/07/21 03:04:54;;;;;;;;;;;;;;;;;;5056104;28;21628;-60
2022/07/21 03:07:19;;;;;;;;;;;;;;;;;;5050884;28;19948;-60
2022/07/21 03:09:45;;;;;;;;;;;;;;;;;;5046764;28;19913;-61
2022/07/21 03:12:10;;;;;;;;;;;;;;;;;;5055889;28;19916;-59
2022/07/21 03:14:35;;;;;;;;;;;;;;;;;;5051553;28;19916;-60
2022/07/21 03:17:02;;;;;;;;;;;;;;;;;;5056871;28;19917;-61
2022/07/21 03:19:27;;;;;;;;;;;;;;;;;;5048776;28;19932;-60
2022/07/21 03:21:52;;;;;;;;;;;;;;;;;;5048994;28;21140;-60
2022/07/21 03:24:17;;;;;;;;;;;;;;;;;;5056280;28;19963;-60
2022/07/21 03:26:42;;;;;;;;;;;;;;;;;;5050761;28;19917;-62
2022/07/21 03:29:09;;;;;;;;;;;;;;;;;;5055279;28;20357;-61
2022/07/21 03:31:34;;;;;;;;;;;;;;;;;;5050548;28;19926;-59
2022/07/21 03:33:59;;;;;;;;;;;;;;;;;;5045981;28;19924;-59
2022/07/21 03:36:24;;;;;;;;;;;;;;;;;;5057771;28;19920;-59
2022/07/21 03:38:51;;;;;;;;;;;;;;;;;;5052317;28;20540;-58
2022/07/21 03:41:16;;;;;;;;;;;;;;;;;;5059375;28;20627;-60
2022/07/21 03:43:41;;;;;;;;;;;;;;;;;;5051617;28;19920;-61
2022/07/21 03:46:06;;;;;;;;;;;;;;;;;;5050924;28;20011;-59
2022/07/21 03:48:31;;;;;;;;;;;;;;;;;;5060323;28;20053;-60
2022/07/21 03:50:57;;;;;;;;;;;;;;;;;;5051546;28;19921;-59
2022/07/21 03:53:22;;;;;;;;;;;;;;;;;;5058373;28;19916;-60
2022/07/21 03:55:47;;;;;;;;;;;;;;;;;;5052498;28;20382;-59
2022/07/21 03:58:13;;;;;;;;;;;;;;;;;;5035575;28;19942;-60
2022/07/21 04:00:38;;;;;;;;;;;;;;;;;;5040671;28;19932;-60
2022/07/21 04:03:04;;;;;;;;;;;;;;;;;;5052008;28;19966;-59
2022/07/21 04:05:29;;;;;;;;;;;;;;;;;;5061891;28;20277;-59
2022/07/21 04:07:54;;;;;;;;;;;;;;;;;;5052370;28;19920;-60
2022/07/21 04:10:19;;;;;;;;;;;;;;;;;;5054007;28;20010;-60
2022/07/21 04:12:44;;;;;;;;;;;;;;;;;;5056858;28;20009;-59
2022/07/21 04:15:10;;;;;;;;;;;;;;;;;;5051846;28;20053;-60
2022/07/21 04:17:35;;;;;;;;;;;;;;;;;;5061331;28;19924;-59
2022/07/21 04:20:00;;;;;;;;;;;;;;;;;;5048666;28;19929;-59
2022/07/21 04:22:25;;;;;;;;;;;;;;;;;;5055498;28;19927;-58
2022/07/21 04:24:50;;;;;;;;;;;;;;;;;;5058450;28;19916;-59
2022/07/21 04:27:15;;;;;;;;;;;;;;;;;;5053150;28;19939;-59
2022/07/21 04:29:41;;;;;;;;;;;;;;;;;;5057427;28;20323;-59
2022/07/21 04:32:06;;;;;;;;;;;;;;;;;;5051323;28;19923;-60
2022/07/21 04:34:31;;;;;;;;;;;;;;;;;;5051338;28;19943;-59
2022/07/21 04:36:56;;;;;;;;;;;;;;;;;;5058838;28;20373;-59
2022/07/21 04:39:22;;;;;;;;;;;;;;;;;;5051314;28;20406;-60
2022/07/21 04:41:47;;;;;;;;;;;;;;;;;;5058714;28;20406;-60
2022/07/21 04:44:12;;;;;;;;;;;;;;;;;;5048968;28;20502;-59
2022/07/21 04:46:37;;;;;;;;;;;;;;;;;;5056192;28;20357;-60
2022/07/21 04:49:02;;;;;;;;;;;;;;;;;;5054893;28;19920;-60
2022/07/21 04:51:28;;;;;;;;;;;;;;;;;;5035628;28;19920;-59
2022/07/21 04:53:53;;;;;;;;;;;;;;;;;;5057284;28;19917;-59
2022/07/21 04:56:18;;;;;;;;;;;;;;;;;;5052277;28;20325;-60
2022/07/21 04:58:43;;;;;;;;;;;;;;;;;;5039219;28;19920;-59
2022/07/21 05:01:08;;;;;;;;;;;;;;;;;;5028126;28;19924;-60
2022/07/21 05:03:34;;;;;;;;;;;;;;;;;;5055017;28;19921;-59
2022/07/21 05:05:59;;;;;;;;;;;;;;;;;;5058288;28;19916;-60
2022/07/21 05:08:26;;;;;;;;;;;;;;;;;;5055130;28;20391;-60
2022/07/21 05:10:51;;;;;;;;;;;;;;;;;;5054794;28;19959;-60
2022/07/21 05:13:16;;;;;;;;;;;;;;;;;;5060664;28;19920;-59
2022/07/21 05:15:42;;;;;;;;;;;;;;;;;;5052715;28;20278;-60
2022/07/21 05:18:07;;;;;;;;;;;;;;;;;;5062795;28;20463;-59
2022/07/21 05:20:32;;;;;;;;;;;;;;;;;;5056316;28;20618;-60
2022/07/21 05:22:57;;;;;;;;;;;;;;;;;;5056550;28;19927;-61
2022/07/21 05:25:22;;;;;;;;;;;;;;;;;;5062792;28;19927;-59
2022/07/21 05:27:48;;;;;;;;;;;;;;;;;;5054523;28;19928;-59
2022/07/21 05:30:13;;;;;;;;;;;;;;;;;;5060021;28;20011;-60
2022/07/21 05:32:38;;;;;;;;;;;;;;;;;;5056164;28;19919;-61
2022/07/21 05:35:08;;;;;;;;;;;;;;;;;;5055840;28;19997;-59
2022/07/21 05:37:33;;;;;;;;;;;;;;;;;;5057000;28;19921;-61
2022/07/21 05:39:58;;;;;;;;;;;;;;;;;;5058745;28;19924;-59
2022/07/21 05:42:24;;;;;;;;;;;;;;;;;;5060328;28;19924;-59
2022/07/21 05:44:49;;;;;;;;;;;;;;;;;;5061949;28;20341;-60
2022/07/21 05:47:14;;;;;;;;;;;;;;;;;;5043903;28;19963;-59
2022/07/21 05:49:39;;;;;;;;;;;;;;;;;;5060811;28;20825;-60
2022/07/21 05:52:05;;;;;;;;;;;;;;;;;;5063906;28;20306;-61
2022/07/21 05:54:30;;;;;;;;;;;;;;;;;;5062706;28;20374;-60
2022/07/21 05:56:55;;;;;;;;;;;;;;;;;;5063056;28;20021;-60
2022/07/21 05:59:21;;;;;;;;;;;;;;;;;;5062789;28;20335;-60
2022/07/21 06:01:46;;;;;;;;;;;;;;;;;;5061110;28;19916;-61
2022/07/21 06:04:11;;;;;;;;;;;;;;;;;;5064972;28;19981;-60
2022/07/21 06:06:36;;;;;;;;;;;;;;;;;;5062659;28;20474;-60
2022/07/21 06:09:01;;;;;;;;;;;;;;;;;;5063147;28;19946;-60
2022/07/21 06:11:27;;;;;;;;;;;;;;;;;;5062879;28;19913;-61
2022/07/21 06:13:52;;;;;;;;;;;;;;;;;;5062136;28;19916;-61
2022/07/21 06:16:18;;;;;;;;;;;;;;;;;;5045391;28;19917;-62
2022/07/21 06:18:43;;;;;;;;;;;;;;;;;;5059900;28;19919;-62
2022/07/21 06:21:08;;;;;;;;;;;;;;;;;;5060548;28;21063;-62
2022/07/21 06:23:33;;;;;;;;;;;;;;;;;;5061836;28;19917;-62
2022/07/21 06:25:58;;;;;;;;;;;;;;;;;;5051784;28;20008;-62
2022/07/21 06:28:24;;;;;;;;;;;;;;;;;;5044741;28;19963;-63
2022/07/21 06:30:49;;;;;;;;;;;;;;;;;;5062474;28;19916;-63
2022/07/21 06:33:14;;;;;;;;;;;;;;;;;;5044095;28;20023;-62
2022/07/21 06:35:39;;;;;;;;;;;;;;;;;;5061429;28;20015;-63
2022/07/21 06:38:04;;;;;;;;;;;;;;;;;;5060578;28;19947;-63
2022/07/21 06:40:30;;;;;;;;;;;;;;;;;;5061265;28;19920;-62
2022/07/21 06:42:55;;;;;;;;;;;;;;;;;;5061498;28;19916;-62
2022/07/21 06:45:20;;;;;;;;;;;;;;;;;;5061485;28;19974;-61
2022/07/21 06:47:46;;;;;;;;;;;;;;;;;;5060756;28;19923;-62
2022/07/21 06:50:11;;;;;;;;;;;;;;;;;;5024950;28;19975;-62
2022/07/21 06:52:36;;;;;;;;;;;;;;;;;;5062086;28;19912;-61
2022/07/21 06:55:01;;;;;;;;;;;;;;;;;;5043165;28;19921;-62
2022/07/21 06:57:26;;;;;;;;;;;;;;;;;;5061326;28;19916;-61
2022/07/21 06:59:52;;;;;;;;;;;;;;;;;;5060607;28;19966;-61
2022/07/21 07:02:17;;;;;;;;;;;;;;;;;;5062300;28;20301;-62
2022/07/21 07:04:43;;;;;;;;;;;;;;;;;;5060698;28;19916;-61
2022/07/21 07:07:08;;;;;;;;;;;;;;;;;;5042932;28;20003;-61
2022/07/21 07:09:33;;;;;;;;;;;;;;;;;;5061151;28;19916;-61
2022/07/21 07:12:03;;;;;;;;;;;;;;;;;;5062665;28;20270;-61
2022/07/21 07:14:28;;;;;;;;;;;;;;;;;;5064015;28;19939;-61
2022/07/21 07:16:53;;;;;;;;;;;;;;;;;;5047378;28;19917;-61
2022/07/21 07:19:19;;;;;;;;;;;;;;;;;;5064748;28;19931;-61
2022/07/21 07:21:44;;;;;;;;;;;;;;;;;;5063917;28;20020;-61
2022/07/21 07:24:09;;;;;;;;;;;;;;;;;;5064451;28;19939;-61
2022/07/21 07:26:34;;;;;;;;;;;;;;;;;;5064217;28;19921;-61
2022/07/21 07:29:00;;;;;;;;;;;;;;;;;;5064532;28;19916;-61
2022/07/21 07:31:25;;;;;;;;;;;;;;;;;;5064901;28;19917;-61
2022/07/21 07:33:50;;;;;;;;;;;;;;;;;;5046755;28;19966;-62
2022/07/21 07:36:16;;;;;;;;;;;;;;;;;;5064053;28;19917;-61
2022/07/21 07:38:41;;;;;;;;;;;;;;;;;;5064299;28;19912;-61
2022/07/21 07:41:06;;;;;;;;;;;;;;;;;;5063946;28;19916;-61
2022/07/21 07:43:31;;;;;;;;;;;;;;;;;;5065266;28;19917;-61
2022/07/21 07:45:56;;;;;;;;;;;;;;;;;;5063669;28;20032;-61
2022/07/21 07:48:22;;;;;;;;;;;;;;;;;;5063890;28;19986;-61
2022/07/21 07:50:47;;;;;;;;;;;;;;;;;;5064892;28;19955;-61
2022/07/21 07:53:12;;;;;;;;;;;;;;;;;;5064082;28;19916;-61
2022/07/21 07:55:37;;;;;;;;;;;;;;;;;;5064238;28;20305;-61
2022/07/21 07:58:02;;;;;;;;;;;;;;;;;;5064094;28;19916;-61
2022/07/21 08:00:28;;;;;;;;;;;;;;;;;;5064712;28;19972;-62
2022/07/21 08:02:53;;;;;;;;;;;;;;;;;;5048333;28;20288;-61
2022/07/21 08:05:18;;;;;;;;;;;;;;;;;;5063667;28;20438;-61
2022/07/21 08:07:43;;;;;;;;;;;;;;;;;;5062972;28;19916;-61
2022/07/21 08:10:08;;;;;;;;;;;;;;;;;;5061712;28;20044;-61
2022/07/21 08:12:34;;;;;;;;;;;;;;;;;;5062953;28;19920;-61
2022/07/21 08:14:59;;;;;;;;;;;;;;;;;;5043832;28;19923;-61
2022/07/21 08:17:24;;;;;;;;;;;;;;;;;;5062732;28;19967;-62
2022/07/21 08:19:49;;;;;;;;;;;;;;;;;;5062769;28;19928;-62
2022/07/21 08:22:14;;;;;;;;;;;;;;;;;;5061690;28;20431;-61
2022/07/21 08:24:40;;;;;;;;;;;;;;;;;;5063539;28;19926;-62
2022/07/21 08:27:05;;;;;;;;;;;;;;;;;;5062888;28;19923;-62
2022/07/21 08:29:30;;;;;;;;;;;;;;;;;;5063545;28;19962;-63
2022/07/21 08:31:55;;;;;;;;;;;;;;;;;;5063740;28;20250;-62
2022/07/21 08:34:20;;;;;;;;;;;;;;;;;;5063248;28;19912;-62
2022/07/21 08:36:46;;;;;;;;;;;;;;;;;;5063129;28;19978;-63
2022/07/21 08:39:11;;;;;;;;;;;;;;;;;;5063382;28;19986;-63
2022/07/21 08:41:37;;;;;;;;;;;;;;;;;;5063956;28;19913;-62
2022/07/21 08:44:02;;;;;;;;;;;;;;;;;;5063363;28;19977;-62
2022/07/21 08:46:27;;;;;;;;;;;;;;;;;;5062996;28;19916;-62
2022/07/21 08:48:52;;;;;;;;;;;;;;;;;;5063855;28;19993;-62
2022/07/21 08:51:18;;;;;;;;;;;;;;;;;;5063392;28;20027;-63
2022/07/21 08:53:43;;;;;;;;;;;;;;;;;;5045101;28;20503;-62
2022/07/21 08:56:08;;;;;;;;;;;;;;;;;;5062942;28;20522;-63
2022/07/21 08:58:35;;;;;;;;;;;;;;;;;;5062653;28;19917;-63
2022/07/21 09:01:01;;;;;;;;;;;;;;;;;;5062659;28;19964;-63
2022/07/21 09:03:26;;;;;;;;;;;;;;;;;;5044186;28;20309;-63
2022/07/21 09:05:51;;;;;;;;;;;;;;;;;;5062534;28;19948;-62
2022/07/21 09:08:16;;;;;;;;;;;;;;;;;;5062179;28;19912;-62
2022/07/21 09:10:41;;;;;;;;;;;;;;;;;;5062537;28;19916;-61
2022/07/21 09:13:07;;;;;;;;;;;;;;;;;;5062847;28;19912;-62
2022/07/21 09:15:32;;;;;;;;;;;;;;;;;;5062448;28;20320;-62
2022/07/21 09:17:57;;;;;;;;;;;;;;;;;;5062966;28;19917;-62
2022/07/21 09:20:23;;;;;;;;;;;;;;;;;;5062618;28;19947;-62
2022/07/21 09:22:48;;;;;;;;;;;;;;;;;;5062333;28;19967;-62
2022/07/21 09:25:13;;;;;;;;;;;;;;;;;;5063234;28;19916;-61
2022/07/21 09:27:38;;;;;;;;;;;;;;;;;;5061374;28;19923;-63
2022/07/21 09:30:03;;;;;;;;;;;;;;;;;;5062404;28;19916;-62
2022/07/21 09:32:29;;;;;;;;;;;;;;;;;;5062426;28;19912;-63
2022/07/21 09:34:54;;;;;;;;;;;;;;;;;;5061839;28;19920;-62
2022/07/21 09:37:19;;;;;;;;;;;;;;;;;;5061755;28;19916;-62
2022/07/21 09:39:44;;;;;;;;;;;;;;;;;;5061374;28;20390;-64
2022/07/21 09:42:10;;;;;;;;;;;;;;;;;;5047734;28;19916;-63
2022/07/21 09:44:35;;;;;;;;;;;;;;;;;;5061259;28;20487;-63
2022/07/21 09:47:00;;;;;;;;;;;;;;;;;;5063427;28;20500;-63
2022/07/21 09:49:25;;;;;;;;;;;;;;;;;;5043246;28;20776;-63
2022/07/21 09:51:50;;;;;;;;;;;;;;;;;;5062485;28;19923;-63
2022/07/21 09:54:16;;;;;;;;;;;;;;;;;;5061763;28;19916;-64
2022/07/21 09:56:41;;;;;;;;;;;;;;;;;;5061998;28;19916;-64
2022/07/21 09:59:06;;;;;;;;;;;;;;;;;;5061659;28;19927;-62
2022/07/21 10:01:31;;;;;;;;;;;;;;;;;;5059806;28;19924;-63
2022/07/21 10:03:57;;;;;;;;;;;;;;;;;;5060237;28;19916;-63
2022/07/21 10:06:22;;;;;;;;;;;;;;;;;;5059747;28;20019;-63
2022/07/21 10:08:47;;;;;;;;;;;;;;;;;;5059522;28;19947;-63
2022/07/21 10:11:12;;;;;;;;;;;;;;;;;;5060108;28;19920;-64
2022/07/21 10:13:38;;;;;;;;;;;;;;;;;;5041581;28;19955;-64
2022/07/21 10:16:03;;;;;;;;;;;;;;;;;;5061639;28;19923;-63
2022/07/21 10:18:28;;;;;;;;;;;;;;;;;;5061499;28;19966;-63
2022/07/21 10:20:56;;;;;;;;;;;;;;;;;;5060765;28;20026;-64
2022/07/21 10:23:21;;;;;;;;;;;;;;;;;;5061207;28;20035;-63
2022/07/21 10:25:46;;;;;;;;;;;;;;;;;;5060787;28;19920;-64
2022/07/21 10:28:12;;;;;;;;;;;;;;;;;;5061234;28;19916;-63
2022/07/21 10:30:37;;;;;;;;;;;;;;;;;;5062077;28;20039;-63
2022/07/21 10:33:02;;;;;;;;;;;;;;;;;;5062993;28;19923;-63
2022/07/21 10:35:30;;;;;;;;;;;;;;;;;;5061518;28;19938;-63
2022/07/21 10:37:55;;;;;;;;;;;;;;;;;;5061180;28;20275;-64
2022/07/21 10:40:21;;;;;;;;;;;;;;;;;;5061766;28;19925;-63
2022/07/21 10:42:46;;;;;;;;;;;;;;;;;;5060392;28;19924;-63
2022/07/21 10:45:11;;;;;;;;;;;;;;;;;;5061162;28;19916;-62
2022/07/21 10:47:36;;;;;;;;;;;;;;;;;;5064489;28;19924;-63
2022/07/21 10:50:04;;;;;;;;;;;;;;;;;;5065303;28;19923;-64
2022/07/21 10:52:29;;;;;;;;;;;;;;;;;;5066445;28;20391;-64
2022/07/21 10:54:54;;;;;;;;;;;;;;;;;;5064948;28;20373;-64
2022/07/21 10:57:20;;;;;;;;;;;;;;;;;;5065088;28;20346;-64
2022/07/21 10:59:45;;;;;;;;;;;;;;;;;;5064911;28;19924;-64
2022/07/21 11:02:10;;;;;;;;;;;;;;;;;;5065102;28;19916;-64
2022/07/21 11:04:35;;;;;;;;;;;;;;;;;;5065796;28;19921;-64
2022/07/21 11:07:00;;;;;;;;;;;;;;;;;;5064419;28;19916;-64
2022/07/21 11:09:25;;;;;;;;;;;;;;;;;;5065122;28;20027;-64
2022/07/21 11:11:51;;;;;;;;;;;;;;;;;;5064462;28;19920;-64
2022/07/21 11:14:18;;;;;;;;;;;;;;;;;;5065576;28;20655;-64
2022/07/21 11:16:44;;;;;;;;;;;;;;;;;;5065252;28;20398;-64
2022/07/21 11:19:09;;;;;;;;;;;;;;;;;;5063612;28;19936;-64
2022/07/21 11:21:34;;;;;;;;;;;;;;;;;;5046227;28;19920;-64
2022/07/21 11:23:59;;;;;;;;;;;;;;;;;;5065008;28;20015;-64
2022/07/21 11:26:24;;;;;;;;;;;;;;;;;;5064919;28;19926;-64
2022/07/21 11:28:50;;;;;;;;;;;;;;;;;;5064038;28;19946;-64
2022/07/21 11:31:15;;;;;;;;;;;;;;;;;;5064917;28;19944;-64
2022/07/21 11:33:40;;;;;;;;;;;;;;;;;;5064697;28;19916;-64
2022/07/21 11:36:05;;;;;;;;;;;;;;;;;;5064228;28;20098;-64
2022/07/21 11:38:34;;;;;;;;;;;;;;;;;;5064411;28;19936;-64
2022/07/21 11:40:59;;;;;;;;;;;;;;;;;;5064656;28;19924;-63
2022/07/21 11:43:24;;;;;;;;;;;;;;;;;;5062699;28;19928;-64
2022/07/21 11:45:49;;;;;;;;;;;;;;;;;;5064458;28;20026;-63
2022/07/21 11:48:15;;;;;;;;;;;;;;;;;;5064556;28;19924;-63
2022/07/21 11:50:40;;;;;;;;;;;;;;;;;;5051456;28;20839;-63
2022/07/21 11:53:06;;;;;;;;;;;;;;;;;;5064675;28;20435;-63
2022/07/21 11:55:31;;;;;;;;;;;;;;;;;;5046536;28;20530;-64
2022/07/21 11:57:56;;;;;;;;;;;;;;;;;;5063480;28;19939;-64
2022/07/21 12:00:22;;;;;;;;;;;;;;;;;;5063932;28;20517;-64
2022/07/21 12:02:47;;;;;;;;;;;;;;;;;;5051289;28;20451;-64
2022/07/21 12:05:14;;;;;;;;;;;;;;;;;;5064151;28;19924;-64
2022/07/21 12:07:39;;;;;;;;;;;;;;;;;;5064236;28;19912;-64
2022/07/21 12:10:04;;;;;;;;;;;;;;;;;;5065421;28;19916;-65
2022/07/21 12:12:29;;;;;;;;;;;;;;;;;;5063686;28;19923;-64
2022/07/21 12:14:55;;;;;;;;;;;;;;;;;;5064643;28;19912;-64
2022/07/21 12:17:20;;;;;;;;;;;;;;;;;;5064427;28;20011;-64
2022/07/21 12:19:45;;;;;;;;;;;;;;;;;;5065630;28;19971;-64
2022/07/21 12:22:10;;;;;;;;;;;;;;;;;;5046958;28;20007;-64
2022/07/21 12:24:36;;;;;;;;;;;;;;;;;;5065421;28;19921;-64
2022/07/21 12:27:01;;;;;;;;;;;;;;;;;;5064831;28;19974;-65
2022/07/21 12:29:26;;;;;;;;;;;;;;;;;;5064587;28;20003;-65
2022/07/21 12:31:51;;;;;;;;;;;;;;;;;;5065198;28;19916;-65
2022/07/21 12:34:18;;;;;;;;;;;;;;;;;;5064955;28;20003;-65
2022/07/21 12:36:44;;;;;;;;;;;;;;;;;;5065295;28;19916;-64
2022/07/21 12:39:09;;;;;;;;;;;;;;;;;;5045365;28;20392;-65
2022/07/21 12:41:34;;;;;;;;;;;;;;;;;;5065802;28;20372;-64
2022/07/21 12:43:59;;;;;;;;;;;;;;;;;;5046986;28;20330;-65
2022/07/21 12:46:24;;;;;;;;;;;;;;;;;;5064644;28;19916;-65
2022/07/21 12:48:50;;;;;;;;;;;;;;;;;;5064902;28;19942;-65
2022/07/21 12:51:15;;;;;;;;;;;;;;;;;;5065678;28;20387;-65
2022/07/21 12:53:40;;;;;;;;;;;;;;;;;;5063998;28;20053;-65
2022/07/21 12:56:05;;;;;;;;;;;;;;;;;;5064974;28;20316;-64
2022/07/21 12:58:30;;;;;;;;;;;;;;;;;;5064814;28;20374;-64
2022/07/21 13:00:56;;;;;;;;;;;;;;;;;;5063976;28;19924;-64
2022/07/21 13:03:21;;;;;;;;;;;;;;;;;;5065683;28;19916;-64
2022/07/21 13:05:46;;;;;;;;;;;;;;;;;;5063850;28;20389;-65
2022/07/21 13:08:12;;;;;;;;;;;;;;;;;;5062143;28;19916;-65
2022/07/21 13:10:37;;;;;;;;;;;;;;;;;;5061444;28;20843;-64
2022/07/21 13:13:02;;;;;;;;;;;;;;;;;;5044612;28;19912;-65
2022/07/21 13:15:27;;;;;;;;;;;;;;;;;;5063293;28;19916;-65
2022/07/21 13:17:52;;;;;;;;;;;;;;;;;;5063390;28;19917;-65
2022/07/21 13:20:18;;;;;;;;;;;;;;;;;;5062885;28;21668;-66
2022/07/21 13:22:43;;;;;;;;;;;;;;;;;;5063194;28;20389;-66
2022/07/21 13:25:09;;;;;;;;;;;;;;;;;;5062471;28;20395;-65
2022/07/21 13:27:34;;;;;;;;;;;;;;;;;;5061938;28;19994;-65
2022/07/21 13:29:59;;;;;;;;;;;;;;;;;;5043561;28;20050;-66
2022/07/21 13:32:25;;;;;;;;;;;;;;;;;;5063103;28;19924;-64
2022/07/21 13:34:50;;;;;;;;;;;;;;;;;;5062549;28;19917;-64
2022/07/21 13:37:15;;;;;;;;;;;;;;;;;;5063473;28;20296;-65
2022/07/21 13:39:40;;;;;;;;;;;;;;;;;;5062607;28;19971;-65
2022/07/21 13:42:05;;;;;;;;;;;;;;;;;;5063236;28;20281;-64
2022/07/21 13:44:31;;;;;;;;;;;;;;;;;;5063903;28;19916;-65
2022/07/21 13:46:57;;;;;;;;;;;;;;;;;;5061855;28;19986;-65
2022/07/21 13:49:22;;;;;;;;;;;;;;;;;;5062585;28;19932;-65
2022/07/21 13:51:47;;;;;;;;;;;;;;;;;;5062034;28;19916;-65
2022/07/21 13:54:12;;;;;;;;;;;;;;;;;;5063410;28;19917;-65
2022/07/21 13:56:37;;;;;;;;;;;;;;;;;;5062944;28;20507;-66
2022/07/21 13:59:03;;;;;;;;;;;;;;;;;;5062288;28;19916;-66
2022/07/21 14:01:28;;;;;;;;;;;;;;;;;;5063467;28;19974;-66
2022/07/21 14:03:54;;;;;;;;;;;;;;;;;;5064197;28;19923;-65
2022/07/21 14:06:19;;;;;;;;;;;;;;;;;;5051706;28;20564;-66
2022/07/21 14:08:44;;;;;;;;;;;;;;;;;;5043855;28;20369;-65
2022/07/21 14:11:10;;;;;;;;;;;;;;;;;;5062986;28;19916;-66
2022/07/21 14:13:36;;;;;;;;;;;;;;;;;;5065568;28;19923;-65
2022/07/21 14:16:01;;;;;;;;;;;;;;;;;;5061674;28;19920;-66
2022/07/21 14:18:26;;;;;;;;;;;;;;;;;;5062321;28;19977;-66
2022/07/21 14:20:51;;;;;;;;;;;;;;;;;;5062485;28;19924;-66
2022/07/21 14:23:17;;;;;;;;;;;;;;;;;;5063417;28;20447;-66
2022/07/21 14:25:42;;;;;;;;;;;;;;;;;;5063325;28;20642;-66
2022/07/21 14:28:07;;;;;;;;;;;;;;;;;;5063119;28;20783;-66
2022/07/21 14:30:32;;;;;;;;;;;;;;;;;;5047348;28;20606;-65
2022/07/21 14:32:58;;;;;;;;;;;;;;;;;;5059021;28;19916;-65
2022/07/21 14:35:25;;;;;;;;;;;;;;;;;;5029441;28;19924;-65
2022/07/21 14:37:50;;;;;;;;;;;;;;;;;;5058056;28;20467;-66
2022/07/21 14:40:15;;;;;;;;;;;;;;;;;;5060157;28;19929;-65
2022/07/21 14:42:40;;;;;;;;;;;;;;;;;;5060617;28;19966;-67
2022/07/21 14:45:06;;;;;;;;;;;;;;;;;;5060706;28;19975;-65
2022/07/21 14:47:31;;;;;;;;;;;;;;;;;;5057590;28;19921;-65
2022/07/21 14:49:56;;;;;;;;;;;;;;;;;;5059319;28;20327;-65
2022/07/21 14:52:21;;;;;;;;;;;;;;;;;;5060890;28;19990;-66
2022/07/21 14:54:47;;;;;;;;;;;;;;;;;;5060406;28;19967;-65
2022/07/21 14:57:12;;;;;;;;;;;;;;;;;;5060922;28;19959;-65
2022/07/21 14:59:37;;;;;;;;;;;;;;;;;;5047452;28;19931;-66
2022/07/21 15:02:02;;;;;;;;;;;;;;;;;;5057960;28;19921;-65
2022/07/21 15:04:27;;;;;;;;;;;;;;;;;;5060402;28;19916;-65
2022/07/21 15:06:53;;;;;;;;;;;;;;;;;;5060403;28;19986;-66
2022/07/21 15:09:21;;;;;;;;;;;;;;;;;;5059778;28;19923;-66
2022/07/21 15:11:46;;;;;;;;;;;;;;;;;;5061973;28;20356;-66
2022/07/21 15:14:11;;;;;;;;;;;;;;;;;;5060168;28;19916;-66
2022/07/21 15:16:36;;;;;;;;;;;;;;;;;;5060421;28;19916;-66
2022/07/21 15:19:02;;;;;;;;;;;;;;;;;;5043155;28;20679;-65
2022/07/21 15:21:27;;;;;;;;;;;;;;;;;;5060794;28;20414;-65
2022/07/21 15:23:52;;;;;;;;;;;;;;;;;;5061189;28;19960;-65
2022/07/21 15:26:17;;;;;;;;;;;;;;;;;;5058695;28;20444;-64
2022/07/21 15:28:43;;;;;;;;;;;;;;;;;;5058851;28;19916;-65
2022/07/21 15:31:08;;;;;;;;;;;;;;;;;;5060515;28;19944;-65
2022/07/21 15:33:33;;;;;;;;;;;;;;;;;;5062718;28;19916;-65
2022/07/21 15:35:58;;;;;;;;;;;;;;;;;;5042819;28;19923;-65
2022/07/21 15:38:23;;;;;;;;;;;;;;;;;;5063337;28;19923;-65
2022/07/21 15:40:49;;;;;;;;;;;;;;;;;;5065049;28;19926;-65
2022/07/21 15:43:14;;;;;;;;;;;;;;;;;;5061987;28;19920;-65
2022/07/21 15:45:40;;;;;;;;;;;;;;;;;;5065021;28;19995;-65
2022/07/21 15:48:06;;;;;;;;;;;;;;;;;;5063576;28;19920;-65
2022/07/21 15:50:31;;;;;;;;;;;;;;;;;;5063322;28;19928;-65
2022/07/21 15:52:56;;;;;;;;;;;;;;;;;;5063797;28;19921;-65
2022/07/21 15:55:21;;;;;;;;;;;;;;;;;;5063059;28;19991;-65
2022/07/21 15:57:47;;;;;;;;;;;;;;;;;;5063451;28;19959;-65
2022/07/21 16:00:12;;;;;;;;;;;;;;;;;;5064459;28;19935;-64
2022/07/21 16:02:37;;;;;;;;;;;;;;;;;;5065685;28;19920;-65
2022/07/21 16:05:02;;;;;;;;;;;;;;;;;;5064928;28;19924;-65
2022/07/21 16:07:27;;;;;;;;;;;;;;;;;;5047812;28;19955;-65
2022/07/21 16:09:55;;;;;;;;;;;;;;;;;;5065376;28;20654;-65
2022/07/21 16:12:21;;;;;;;;;;;;;;;;;;5065080;28;19912;-65
2022/07/21 16:14:46;;;;;;;;;;;;;;;;;;5062498;28;19920;-64
2022/07/21 16:17:11;;;;;;;;;;;;;;;;;;5044343;28;19928;-65
2022/07/21 16:19:37;;;;;;;;;;;;;;;;;;5064340;28;20372;-64
2022/07/21 16:22:03;;;;;;;;;;;;;;;;;;5062475;28;20013;-64
2022/07/21 16:24:29;;;;;;;;;;;;;;;;;;5063801;28;19999;-66
2022/07/21 16:26:55;;;;;;;;;;;;;;;;;;5062783;28;19923;-64
2022/07/21 16:29:21;;;;;;;;;;;;;;;;;;5060630;28;19912;-64
2022/07/21 16:31:47;;;;;;;;;;;;;;;;;;5062696;28;20678;-64
2022/07/21 16:34:16;;;;;;;;;;;;;;;;;;5062377;28;20322;-64